| Date | Time | Temp. (oF) | Dew Point (oF) | Rel. Hum. (%) | Press. (in.) | Wind Dir. | Wind Speed (mph) | Hourly Rainfall (in.) |
|
|---|---|---|---|---|---|---|---|---|---|
| 1 | 03/02 | 00:00 | 30 | 23 | 76 | 29.50 | SSW | 8 | 0.00 |
| 2 | 03/01 | 23:00 | 31 | 23 | 72 | 29.48 | W | 4 | 0.00 |
| 3 | 03/01 | 22:00 | 31 | 22 | 71 | 29.48 | SW | 10 | 0.00 |
| 4 | 03/01 | 21:00 | 31 | 22 | 69 | 29.48 | SSW | 10 | 0.00 |
| 5 | 03/01 | 20:00 | 30 | 21 | 70 | 29.48 | SW | 5 | 0.00 |
| 6 | 03/01 | 19:00 | 32 | 22 | 67 | 29.49 | W | 6 | 0.00 |
| 7 | 03/01 | 18:00 | 34 | 23 | 64 | 29.47 | SW | 10 | 0.00 |
| 8 | 03/01 | 17:00 | 35 | 23 | 62 | 29.44 | WSW | 8 | 0.00 |
| 9 | 03/01 | 16:00 | 36 | 24 | 63 | 29.42 | SW | 8 | 0.00 |
| 10 | 03/01 | 15:00 | 36 | 26 | 67 | 29.41 | SW | 7 | 0.00 |
| 11 | 03/01 | 14:00 | 36 | 27 | 72 | 29.41 | SW | 11 | 0.00 |
| 12 | 03/01 | 13:00 | 37 | 28 | 71 | 29.40 | SW | 11 | 0.00 |
| 13 | 03/01 | 12:00 | 35 | 30 | 82 | 29.42 | SW | 10 | 0.00 |
| 14 | 03/01 | 11:00 | 33 | 30 | 90 | 29.44 | WSW | 4 | 0.00 |
| 15 | 03/01 | 10:00 | 30 | 29 | 96 | 29.45 | SW | 6 | 0.00 |
| 16 | 03/01 | 09:00 | 28 | 27 | 100 | 29.46 | SSW | 4 | 0.00 |
| 17 | 03/01 | 08:00 | 25 | 24 | 100 | 29.47 | SSW | 4 | 0.01 |
| 18 | 03/01 | 07:00 | 24 | 23 | 100 | 29.47 | S | 2 | 0.00 |
| 19 | 03/01 | 06:00 | 25 | 24 | 100 | 29.47 | NW | 2 | 0.00 |
| 20 | 03/01 | 05:00 | 25 | 24 | 100 | 29.47 | SW | 2 | 0.02 |
| 21 | 03/01 | 04:00 | 25 | 24 | 100 | 29.46 | E | 0 | 0.02 |
| 22 | 03/01 | 03:00 | 25 | 24 | 100 | 29.49 | NNE | 2 | 0.01 |
| 23 | 03/01 | 02:00 | 25 | 24 | 100 | 29.51 | NNW | 2 | 0.02 |
| 24 | 03/01 | 01:00 | 26 | 26 | 100 | 29.53 | WNW | 2 | 0.02 |